Time;durP1;ratioP1;P1;durP2;ratioP2;P2;SDS_P1;SDS_P2;PMS_P1;PMS_P2;Temp;Humidity;BMP_temperature;BMP_pressure;BME280_temperature;BME280_humidity;BME280_pressure;Samples;Min_cycle;Max_cycle;Signal;HPM_P1;HPM_P2
2021/06/26 00:00:44;;;;;;;14.30;11.00;;;16.80;19.30;;;;;;4865002;29;20045;-68
2021/06/26 00:03:33;;;;;;;13.70;10.27;;;16.80;18.40;;;;;;4866625;29;20132;-68
2021/06/26 00:06:22;;;;;;;14.52;10.68;;;16.70;19.10;;;;;;4872046;29;20053;-69
2021/06/26 00:09:11;;;;;;;14.52;10.90;;;16.70;19.70;;;;;;4867028;29;20060;-69
2021/06/26 00:12:00;;;;;;;11.95;9.68;;;16.70;20.90;;;;;;4870005;29;20041;-67
2021/06/26 00:14:50;;;;;;;15.18;10.38;;;16.60;21.20;;;;;;4863316;29;20345;-68
2021/06/26 00:17:38;;;;;;;14.85;10.35;;;16.60;21.20;;;;;;4866935;29;20225;-68
2021/06/26 00:20:27;;;;;;;11.48;10.27;;;16.60;21.80;;;;;;4867457;29;20371;-67
2021/06/26 00:23:16;;;;;;;16.42;10.52;;;16.60;22.60;;;;;;4872667;29;20084;-68
2021/06/26 00:26:05;;;;;;;15.15;10.55;;;16.60;23.10;;;;;;4863680;29;20057;-68
2021/06/26 00:28:53;;;;;;;12.57;10.57;;;16.60;24.00;;;;;;4866024;29;20659;-67
2021/06/26 00:31:43;;;;;;;18.15;10.80;;;16.50;24.00;;;;;;4869210;29;20523;-68
2021/06/26 00:34:32;;;;;;;15.45;11.77;;;16.50;25.00;;;;;;4867155;29;20083;-69
2021/06/26 00:37:20;;;;;;;15.05;12.63;;;16.60;25.40;;;;;;4868408;29;20845;-69
2021/06/26 00:40:10;;;;;;;14.77;11.60;;;16.50;25.20;;;;;;4867132;29;20071;-69
2021/06/26 00:42:59;;;;;;;15.23;11.27;;;16.40;26.50;;;;;;4866694;29;20201;-68
2021/06/26 00:45:47;;;;;;;14.63;11.55;;;16.40;27.20;;;;;;4864341;29;20132;-69
2021/06/26 00:48:37;;;;;;;14.05;12.02;;;16.40;27.00;;;;;;4866929;29;20045;-69
2021/06/26 00:51:26;;;;;;;16.35;11.43;;;16.30;28.10;;;;;;4870231;29;20045;-69
2021/06/26 00:54:14;;;;;;;17.15;12.25;;;16.30;28.70;;;;;;4872107;29;20145;-69
2021/06/26 00:57:03;;;;;;;14.35;11.85;;;16.40;29.30;;;;;;4868200;29;20045;-69
2021/06/26 00:59:51;;;;;;;18.83;11.75;;;16.30;29.80;;;;;;4866090;29;20060;-69
2021/06/26 01:02:40;;;;;;;17.35;12.27;;;16.30;31.00;;;;;;4867697;29;20634;-69
2021/06/26 01:05:30;;;;;;;16.10;12.38;;;16.40;31.30;;;;;;4859395;29;20647;-69
2021/06/26 01:08:18;;;;;;;16.35;12.55;;;16.50;31.60;;;;;;4865026;29;20062;-68
2021/06/26 01:11:07;;;;;;;19.98;12.20;;;16.40;31.60;;;;;;4865574;29;20466;-69
2021/06/26 01:13:57;;;;;;;14.88;11.52;;;16.40;31.80;;;;;;4865420;29;20063;-68
2021/06/26 01:16:45;;;;;;;13.63;11.82;;;16.30;33.60;;;;;;4865994;29;20049;-68
2021/06/26 01:19:35;;;;;;;15.27;12.93;;;16.40;33.30;;;;;;4861389;29;20050;-68
2021/06/26 01:22:35;;;;;;;15.77;12.63;;;16.40;32.40;;;;;;4866250;29;20597;-68
2021/06/26 01:25:24;;;;;;;17.83;13.13;;;16.30;34.10;;;;;;4866287;29;20449;-69
2021/06/26 01:28:13;;;;;;;14.90;12.80;;;16.40;35.20;;;;;;4863016;29;20528;-70
2021/06/26 01:31:02;;;;;;;15.15;13.15;;;16.30;35.00;;;;;;4866981;29;20109;-69
2021/06/26 01:33:50;;;;;;;16.92;13.25;;;16.40;36.20;;;;;;4865082;29;20060;-69
2021/06/26 01:36:39;;;;;;;18.55;13.20;;;16.30;36.20;;;;;;4862892;29;20061;-67
2021/06/26 01:39:28;;;;;;;15.52;13.35;;;16.30;38.50;;;;;;4863596;29;20051;-68
2021/06/26 01:42:17;;;;;;;16.50;13.70;;;16.30;37.90;;;;;;4867942;29;20053;-68
2021/06/26 01:45:07;;;;;;;17.25;13.48;;;16.30;38.40;;;;;;4862622;29;20045;-69
2021/06/26 01:47:56;;;;;;;19.45;14.00;;;16.20;38.10;;;;;;4858689;29;20063;-68
2021/06/26 01:50:45;;;;;;;15.23;13.60;;;16.20;39.20;;;;;;4866744;29;20057;-68
2021/06/26 01:53:33;;;;;;;18.10;13.90;;;16.20;38.70;;;;;;4866537;29;20481;-68
2021/06/26 01:56:23;;;;;;;16.88;13.48;;;16.30;39.90;;;;;;4865952;29;20514;-69
2021/06/26 01:59:12;;;;;;;18.23;13.55;;;16.20;40.30;;;;;;4866076;29;20058;-69
2021/06/26 02:02:00;;;;;;;19.88;13.90;;;16.30;40.40;;;;;;4869347;29;20129;-68
2021/06/26 02:04:48;;;;;;;16.45;13.48;;;16.40;40.50;;;;;;4867115;29;20053;-68
2021/06/26 02:07:37;;;;;;;18.27;12.93;;;16.30;40.60;;;;;;4863104;29;20057;-67
2021/06/26 02:10:29;;;;;;;17.58;13.55;;;16.40;40.50;;;;;;4869699;29;20060;-68
2021/06/26 02:13:19;;;;;;;19.63;13.90;;;16.30;41.40;;;;;;4867636;29;20062;-68
2021/06/26 02:16:08;;;;;;;21.63;13.30;;;16.30;41.50;;;;;;4861504;29;20076;-68
2021/06/26 02:18:56;;;;;;;18.92;14.38;;;16.30;43.00;;;;;;4859810;29;20176;-68
2021/06/26 02:21:45;;;;;;;18.10;14.52;;;16.30;42.20;;;;;;4870387;29;20045;-68
2021/06/26 02:24:33;;;;;;;18.00;13.77;;;16.30;40.80;;;;;;4871358;29;20077;-68
2021/06/26 02:27:21;;;;;;;20.70;14.07;;;16.30;40.70;;;;;;4866400;29;20125;-69
2021/06/26 02:30:14;;;;;;;15.48;13.70;;;16.30;40.00;;;;;;4868525;29;20057;-68
2021/06/26 02:33:02;;;;;;;18.17;13.55;;;16.20;40.10;;;;;;4865959;29;20056;-68
2021/06/26 02:35:51;;;;;;;17.58;13.00;;;16.30;42.50;;;;;;4864752;29;20139;-68
2021/06/26 02:38:39;;;;;;;15.43;13.07;;;16.20;42.40;;;;;;4865592;29;20454;-69
2021/06/26 02:41:27;;;;;;;18.08;12.95;;;16.20;42.40;;;;;;4870756;29;20049;-68
2021/06/26 02:44:16;;;;;;;21.10;14.00;;;16.20;42.50;;;;;;4866495;29;20051;-68
2021/06/26 02:47:06;;;;;;;18.70;14.00;;;16.10;41.90;;;;;;4863038;29;20421;-68
2021/06/26 02:49:54;;;;;;;20.73;13.45;;;16.00;41.20;;;;;;4863392;29;20065;-67
2021/06/26 02:52:43;;;;;;;19.40;12.73;;;16.00;42.40;;;;;;4867289;29;20629;-69
2021/06/26 02:55:31;;;;;;;17.65;13.00;;;16.10;42.50;;;;;;4863134;29;20128;-69
2021/06/26 02:58:20;;;;;;;17.25;13.73;;;16.00;41.20;;;;;;4867087;29;20124;-66
2021/06/26 03:01:08;;;;;;;18.77;15.85;;;16.10;42.50;;;;;;4865957;29;20057;-68
2021/06/26 03:03:58;;;;;;;18.08;14.65;;;16.10;42.90;;;;;;4867588;29;20132;-68
2021/06/26 03:06:46;;;;;;;19.42;13.88;;;16.10;42.80;;;;;;4864040;29;20120;-68
2021/06/26 03:09:35;;;;;;;17.95;14.27;;;16.10;43.20;;;;;;4863160;29;20049;-68
2021/06/26 03:12:23;;;;;;;18.33;13.90;;;16.10;44.30;;;;;;4866380;29;20110;-68
2021/06/26 03:15:13;;;;;;;15.70;13.35;;;16.00;44.60;;;;;;4864798;29;20198;-68
2021/06/26 03:18:02;;;;;;;20.48;14.07;;;16.00;45.90;;;;;;4870845;29;20053;-67
2021/06/26 03:20:54;;;;;;;17.63;13.75;;;16.10;46.70;;;;;;4869586;29;20048;-68
2021/06/26 03:23:43;;;;;;;20.17;13.98;;;16.10;46.90;;;;;;4871068;29;20108;-68
2021/06/26 03:26:33;;;;;;;16.88;14.18;;;16.20;46.70;;;;;;4869045;29;20152;-67
2021/06/26 03:29:21;;;;;;;18.27;14.30;;;16.20;46.30;;;;;;4855527;29;20069;-68
2021/06/26 03:32:11;;;;;;;18.92;15.50;;;16.30;46.80;;;;;;4873060;29;20071;-67
2021/06/26 03:34:59;;;;;;;18.52;14.90;;;16.30;46.60;;;;;;4863304;29;20061;-68
2021/06/26 03:37:49;;;;;;;19.65;15.35;;;16.30;46.90;;;;;;4868332;29;20060;-68
2021/06/26 03:40:38;;;;;;;17.73;14.70;;;16.50;46.40;;;;;;4869180;29;20136;-68
2021/06/26 03:43:26;;;;;;;19.30;15.10;;;16.50;46.00;;;;;;4868877;29;20152;-68
2021/06/26 03:46:15;;;;;;;17.85;15.20;;;16.50;47.00;;;;;;4863633;29;20056;-68
2021/06/26 03:49:04;;;;;;;18.55;14.80;;;16.50;45.90;;;;;;4862847;29;20053;-68
2021/06/26 03:51:52;;;;;;;18.65;14.85;;;16.40;46.90;;;;;;4870886;29;20045;-68
2021/06/26 03:54:42;;;;;;;18.30;14.32;;;16.40;47.40;;;;;;4870066;29;20527;-69
2021/06/26 03:57:30;;;;;;;18.98;14.68;;;16.40;48.80;;;;;;4868104;29;20148;-69
2021/06/26 04:00:19;;;;;;;22.33;15.35;;;16.40;47.30;;;;;;4868706;29;20057;-69
2021/06/26 04:03:08;;;;;;;19.15;14.73;;;16.20;48.90;;;;;;4867064;29;20048;-69
2021/06/26 04:05:56;;;;;;;20.83;16.13;;;16.30;50.60;;;;;;4874527;29;20045;-69
2021/06/26 04:08:44;;;;;;;21.55;15.10;;;16.30;50.40;;;;;;4863520;29;20049;-68
2021/06/26 04:11:34;;;;;;;19.25;15.43;;;16.30;51.00;;;;;;4866734;29;20533;-68
2021/06/26 04:14:23;;;;;;;19.85;16.23;;;16.30;50.80;;;;;;4870880;29;20053;-68
2021/06/26 04:17:11;;;;;;;18.67;15.23;;;16.40;50.20;;;;;;4864402;29;20151;-67
2021/06/26 04:20:00;;;;;;;20.25;16.00;;;16.20;49.90;;;;;;4865549;29;20081;-68
2021/06/26 04:22:48;;;;;;;21.40;17.02;;;16.30;50.10;;;;;;4866989;29;20073;-68
2021/06/26 04:25:37;;;;;;;21.13;15.77;;;16.40;50.80;;;;;;4860231;29;20517;-68
2021/06/26 04:28:26;;;;;;;21.05;16.52;;;16.30;49.20;;;;;;4865484;29;20065;-68
2021/06/26 04:31:18;;;;;;;21.85;15.57;;;16.40;51.00;;;;;;4866414;29;20623;-68
2021/06/26 04:34:07;;;;;;;25.40;17.15;;;16.40;51.00;;;;;;4847585;29;20508;-69
2021/06/26 04:36:55;;;;;;;22.75;16.48;;;16.40;50.00;;;;;;4853083;29;20053;-68
2021/06/26 04:39:43;;;;;;;23.40;16.60;;;16.40;45.70;;;;;;4868186;29;20096;-68
2021/06/26 04:42:32;;;;;;;20.50;16.35;;;17.00;46.20;;;;;;4866229;29;20053;-68
2021/06/26 04:45:22;;;;;;;23.13;15.00;;;17.90;37.10;;;;;;4864794;29;20093;-68
2021/06/26 04:48:11;;;;;;;19.20;14.48;;;19.20;21.30;;;;;;4865704;29;20458;-69
2021/06/26 04:50:59;;;;;;;17.17;13.75;;;19.70;11.70;;;;;;4870435;29;20105;-67
2021/06/26 04:53:48;;;;;;;17.38;13.15;;;20.70;7.60;;;;;;4869444;29;20078;-67
2021/06/26 04:56:36;;;;;;;19.08;13.27;;;21.10;6.50;;;;;;4867473;29;20179;-68
2021/06/26 04:59:25;;;;;;;18.02;13.57;;;21.20;4.60;;;;;;4848733;29;20060;-70
2021/06/26 05:02:15;;;;;;;14.23;12.45;;;21.10;4.10;;;;;;4869085;29;20532;-69
2021/06/26 05:05:04;;;;;;;17.33;12.95;;;21.80;2.10;;;;;;4868094;29;20429;-67
2021/06/26 05:07:52;;;;;;;19.15;13.00;;;21.50;3.10;;;;;;4865212;29;20085;-67
2021/06/26 05:10:41;;;;;;;18.40;13.38;;;22.10;1.00;;;;;;4867698;29;20053;-68
2021/06/26 05:13:29;;;;;;;14.02;12.48;;;21.70;1.00;;;;;;4867938;29;20053;-68
2021/06/26 05:16:18;;;;;;;18.75;12.32;;;21.60;1.00;;;;;;4864703;29;20045;-68
2021/06/26 05:19:08;;;;;;;17.25;12.68;;;22.30;1.00;;;;;;4863732;29;20052;-69
2021/06/26 05:21:56;;;;;;;17.52;13.57;;;22.60;1.00;;;;;;4866391;29;20425;-67
2021/06/26 05:24:45;;;;;;;16.17;12.85;;;22.20;1.00;;;;;;4867304;29;20201;-69
2021/06/26 05:27:34;;;;;;;15.48;12.73;;;22.60;1.00;;;;;;4869090;29;20080;-69
2021/06/26 05:30:23;;;;;;;19.90;13.93;;;22.10;1.00;;;;;;4859754;29;20481;-68
2021/06/26 05:33:11;;;;;;;17.80;13.80;;;22.50;1.00;;;;;;4866729;29;20053;-68
2021/06/26 05:36:01;;;;;;;17.10;13.80;;;22.20;1.00;;;;;;4861212;29;20097;-68
2021/06/26 05:38:49;;;;;;;23.25;13.93;;;21.80;1.00;;;;;;4865254;29;20053;-68
2021/06/26 05:41:37;;;;;;;16.05;13.98;;;22.70;1.00;;;;;;4869727;29;20090;-69
2021/06/26 05:44:26;;;;;;;17.15;13.45;;;22.90;1.00;;;;;;4868586;29;20241;-68
2021/06/26 05:47:14;;;;;;;18.27;13.80;;;22.30;1.00;;;;;;4860134;29;20045;-68
2021/06/26 05:50:04;;;;;;;16.00;13.85;;;22.30;1.00;;;;;;4863129;29;20053;-68
2021/06/26 05:52:55;;;;;;;19.00;13.98;;;21.00;1.30;;;;;;4866862;29;20098;-69
2021/06/26 05:55:43;;;;;;;16.02;14.10;;;21.40;1.00;;;;;;4864751;29;20185;-69
2021/06/26 05:58:33;;;;;;;16.92;13.20;;;22.10;1.00;;;;;;4863245;29;21354;-68
2021/06/26 06:01:24;;;;;;;17.83;14.18;;;22.50;1.00;;;;;;4867337;29;20128;-68
2021/06/26 06:04:12;;;;;;;15.88;13.38;;;22.00;1.00;;;;;;4868601;29;20154;-69
2021/06/26 06:07:00;;;;;;;17.40;13.65;;;21.70;1.00;;;;;;4868190;29;20046;-68
2021/06/26 06:09:50;;;;;;;22.38;14.90;;;20.10;3.30;;;;;;4865023;29;20140;-68
2021/06/26 06:12:40;;;;;;;20.17;15.40;;;20.20;6.80;;;;;;4867912;29;20117;-68
2021/06/26 06:15:28;;;;;;;19.00;15.13;;;20.00;8.20;;;;;;4863778;29;20063;-66
2021/06/26 06:18:19;;;;;;;21.70;15.75;;;20.40;8.50;;;;;;4863123;29;20063;-69
2021/06/26 06:21:07;;;;;;;26.60;15.25;;;20.50;7.50;;;;;;4864203;29;20041;-69
2021/06/26 06:23:56;;;;;;;19.95;15.07;;;20.40;8.00;;;;;;4863855;29;20132;-68
2021/06/26 06:26:46;;;;;;;19.83;14.52;;;19.90;9.40;;;;;;4862429;29;20133;-67
2021/06/26 06:29:34;;;;;;;22.35;13.43;;;20.10;9.30;;;;;;4864255;29;20060;-68
2021/06/26 06:32:23;;;;;;;20.48;13.77;;;20.40;9.00;;;;;;4868093;29;20049;-69
2021/06/26 06:35:11;;;;;;;17.15;13.77;;;20.00;10.80;;;;;;4866142;29;20056;-69
2021/06/26 06:38:01;;;;;;;17.70;13.45;;;19.90;9.60;;;;;;4864512;29;20061;-67
2021/06/26 06:40:49;;;;;;;19.23;13.57;;;19.90;8.90;;;;;;4862355;29;20117;-68
2021/06/26 06:43:39;;;;;;;17.30;13.07;;;19.70;10.20;;;;;;4867048;29;20085;-67
2021/06/26 06:46:30;;;;;;;16.25;14.27;;;19.80;9.20;;;;;;4860806;29;20100;-68
2021/06/26 06:49:18;;;;;;;17.63;14.60;;;19.60;9.10;;;;;;4868173;29;20045;-69
2021/06/26 06:52:07;;;;;;;15.63;13.32;;;19.60;8.00;;;;;;4870635;29;20104;-69
2021/06/26 06:54:56;;;;;;;16.63;13.45;;;19.30;7.90;;;;;;4867746;29;20520;-69
2021/06/26 06:57:44;;;;;;;17.38;13.82;;;19.60;7.90;;;;;;4867054;29;20614;-68
2021/06/26 07:00:34;;;;;;;14.68;12.75;;;20.30;2.60;;;;;;4871530;29;20214;-68
2021/06/26 07:03:22;;;;;;;14.82;13.07;;;20.50;1.60;;;;;;4869286;29;20061;-68
2021/06/26 07:06:11;;;;;;;13.10;11.57;;;20.70;1.00;;;;;;4867733;29;20128;-68
2021/06/26 07:08:59;;;;;;;12.35;10.50;;;20.50;1.00;;;;;;4867823;29;20124;-67
2021/06/26 07:11:47;;;;;;;12.38;10.60;;;20.10;1.00;;;;;;4869738;29;20058;-68
2021/06/26 07:14:36;;;;;;;12.18;9.52;;;20.10;1.00;;;;;;4865657;29;20129;-68
2021/06/26 07:17:26;;;;;;;13.80;10.02;;;19.90;1.00;;;;;;4871161;29;20465;-68
2021/06/26 07:20:15;;;;;;;12.02;10.18;;;20.20;1.00;;;;;;4863191;29;20173;-68
2021/06/26 07:23:03;;;;;;;14.57;10.20;;;20.20;1.00;;;;;;4869008;29;20182;-69
2021/06/26 07:25:51;;;;;;;10.18;9.00;;;20.10;1.00;;;;;;4864244;29;20046;-68
2021/06/26 07:28:40;;;;;;;9.35;8.13;;;20.20;1.00;;;;;;4866703;29;20204;-68
2021/06/26 07:31:28;;;;;;;9.68;8.18;;;20.40;1.00;;;;;;4868851;29;20417;-69
2021/06/26 07:34:18;;;;;;;12.93;9.18;;;20.40;1.00;;;;;;4868275;29;20055;-68
2021/06/26 07:37:07;;;;;;;9.18;8.00;;;20.40;1.00;;;;;;4861850;29;20465;-69
2021/06/26 07:39:55;;;;;;;10.63;8.23;;;20.40;1.00;;;;;;4869115;29;20188;-68
2021/06/26 07:42:44;;;;;;;9.77;7.88;;;20.50;1.00;;;;;;4870779;29;20064;-68
2021/06/26 07:45:33;;;;;;;9.13;8.05;;;20.60;1.00;;;;;;4865761;29;20081;-68
2021/06/26 07:48:22;;;;;;;8.90;7.75;;;21.00;1.00;;;;;;4862869;29;20053;-69
2021/06/26 07:51:12;;;;;;;9.50;7.65;;;21.00;1.00;;;;;;4871761;29;20145;-68
2021/06/26 07:54:03;;;;;;;9.27;8.30;;;21.00;1.00;;;;;;4868557;29;20081;-69
2021/06/26 07:56:52;;;;;;;9.45;8.23;;;20.90;1.00;;;;;;4865430;29;20052;-67
2021/06/26 07:59:40;;;;;;;10.68;8.30;;;21.20;1.00;;;;;;4862095;29;20136;-68
2021/06/26 08:02:28;;;;;;;8.27;7.47;;;21.40;1.00;;;;;;4872135;29;20089;-68
2021/06/26 08:05:17;;;;;;;11.30;8.23;;;20.70;1.00;;;;;;4865704;29;20141;-68
2021/06/26 08:08:24;;;;;;;11.13;9.07;;;21.50;1.00;;;;;;4869475;29;20162;-69
2021/06/26 08:11:13;;;;;;;11.85;8.38;;;21.50;1.00;;;;;;4878332;29;20060;-69
2021/06/26 08:14:01;;;;;;;9.52;8.52;;;21.60;1.00;;;;;;4869318;29;20045;-67
2021/06/26 08:16:50;;;;;;;9.30;7.97;;;21.70;1.00;;;;;;4865715;29;20053;-68
2021/06/26 08:19:38;;;;;;;10.60;7.78;;;21.40;1.00;;;;;;4866236;29;20056;-68
2021/06/26 08:22:27;;;;;;;9.27;7.70;;;21.70;1.00;;;;;;4870136;29;20053;-68
2021/06/26 08:25:16;;;;;;;10.77;7.93;;;22.00;1.00;;;;;;4866688;29;20561;-67
2021/06/26 08:28:05;;;;;;;10.02;7.70;;;21.40;1.00;;;;;;4865088;29;20056;-67
2021/06/26 08:30:54;;;;;;;10.60;7.97;;;21.70;1.00;;;;;;4869014;29;20142;-68
2021/06/26 08:33:42;;;;;;;8.38;7.50;;;21.80;1.00;;;;;;4870571;29;20174;-68
2021/06/26 08:36:31;;;;;;;9.45;6.95;;;21.90;1.00;;;;;;4866519;29;20405;-68
2021/06/26 08:39:20;;;;;;;8.35;6.03;;;21.90;1.00;;;;;;4866616;29;20049;-67
2021/06/26 08:42:10;;;;;;;7.63;6.35;;;22.80;1.00;;;;;;4869595;29;20067;-68
2021/06/26 08:45:00;;;;;;;9.15;6.63;;;23.20;1.00;;;;;;4868424;29;20057;-68
2021/06/26 08:47:51;;;;;;;8.30;6.55;;;22.70;1.00;;;;;;4866023;29;20169;-69
2021/06/26 08:50:40;;;;;;;6.43;5.82;;;23.10;1.00;;;;;;4866581;29;20131;-67
2021/06/26 08:53:28;;;;;;;18.77;6.50;;;23.20;1.00;;;;;;4867047;29;20157;-68
2021/06/26 08:56:16;;;;;;;8.00;6.13;;;23.40;1.00;;;;;;4862580;29;20052;-68
2021/06/26 08:59:06;;;;;;;7.22;5.88;;;23.30;1.00;;;;;;4863608;29;20602;-67
2021/06/26 09:01:55;;;;;;;7.30;6.60;;;24.00;1.00;;;;;;4867944;29;20572;-68
2021/06/26 09:04:43;;;;;;;7.88;6.75;;;24.20;1.00;;;;;;4868415;29;20071;-68
2021/06/26 09:07:33;;;;;;;7.60;6.55;;;23.80;1.00;;;;;;4867243;29;20537;-68
2021/06/26 09:10:23;;;;;;;7.75;6.97;;;23.20;1.00;;;;;;4857983;29;20053;-68
2021/06/26 09:13:18;;;;;;;8.70;7.80;;;23.90;1.00;;;;;;4869437;29;20497;-68
2021/06/26 09:16:11;;;;;;;8.32;7.40;;;22.90;1.00;;;;;;4864855;29;20048;-68
2021/06/26 09:18:59;;;;;;;8.70;6.90;;;23.60;1.00;;;;;;4863281;29;20068;-69
2021/06/26 09:22:09;;;;;;;8.20;6.72;;;23.60;1.00;;;;;;4871822;29;20048;-68
2021/06/26 09:24:57;;;;;;;8.18;6.57;;;23.50;1.00;;;;;;4863662;29;23406;-68
2021/06/26 09:27:46;;;;;;;8.38;6.30;;;24.40;1.00;;;;;;4863523;29;20092;-68
2021/06/26 09:30:37;;;;;;;7.68;5.90;;;24.00;1.00;;;;;;4863248;29;20056;-68
2021/06/26 09:33:28;;;;;;;7.97;6.72;;;24.80;1.00;;;;;;4867623;29;20073;-67
2021/06/26 09:36:17;;;;;;;7.70;6.90;;;25.00;1.00;;;;;;4860362;29;20041;-67
2021/06/26 09:39:07;;;;;;;9.07;7.65;;;24.20;1.00;;;;;;4854807;29;21840;-68
2021/06/26 09:41:55;;;;;;;7.85;6.97;;;24.00;1.00;;;;;;4863963;29;20064;-68
2021/06/26 09:44:52;;;;;;;6.75;6.05;;;24.10;1.00;;;;;;4865150;29;20107;-68
2021/06/26 09:47:42;;;;;;;7.00;6.18;;;23.50;1.00;;;;;;4864520;29;20453;-68
2021/06/26 09:50:38;;;;;;;7.45;6.65;;;23.80;1.00;;;;;;4864760;29;20068;-68
2021/06/26 09:53:26;;;;;;;6.87;6.17;;;23.70;1.00;;;;;;4861765;29;20385;-68
2021/06/26 09:56:15;;;;;;;8.23;6.45;;;23.70;1.00;;;;;;4862916;29;20909;-66
2021/06/26 09:59:08;;;;;;;7.70;6.22;;;23.50;1.00;;;;;;4859967;29;21344;-67
2021/06/26 10:01:58;;;;;;;6.80;6.20;;;23.90;1.00;;;;;;4866673;29;20057;-66
2021/06/26 10:04:46;;;;;;;7.15;6.13;;;23.80;1.00;;;;;;4862797;29;20095;-67
2021/06/26 10:07:38;;;;;;;8.27;7.00;;;24.10;1.00;;;;;;4867450;29;20057;-67
2021/06/26 10:10:26;;;;;;;7.85;6.45;;;24.10;1.00;;;;;;4861251;29;20057;-68
2021/06/26 10:13:15;;;;;;;7.40;6.70;;;23.70;1.00;;;;;;4866258;29;20109;-67
2021/06/26 10:16:04;;;;;;;7.95;7.15;;;23.60;1.00;;;;;;4863739;29;20049;-67
2021/06/26 10:18:58;;;;;;;7.90;7.10;;;23.50;1.00;;;;;;4864381;29;20140;-67
2021/06/26 10:21:49;;;;;;;9.18;6.70;;;23.70;1.00;;;;;;4867840;29;20096;-68
2021/06/26 10:24:43;;;;;;;7.55;6.85;;;23.70;1.00;;;;;;4864357;29;20176;-67
2021/06/26 10:27:31;;;;;;;8.88;7.07;;;24.00;1.00;;;;;;4865411;29;20046;-67
2021/06/26 10:30:22;;;;;;;6.88;6.28;;;24.10;1.00;;;;;;4860458;29;20045;-68
2021/06/26 10:33:13;;;;;;;7.10;6.45;;;24.20;1.00;;;;;;4865944;29;20158;-68
2021/06/26 10:36:02;;;;;;;6.72;5.97;;;24.20;1.00;;;;;;4862963;29;20045;-68
2021/06/26 10:38:51;;;;;;;7.78;6.97;;;24.00;1.00;;;;;;4860729;29;20153;-67
2021/06/26 10:41:41;;;;;;;8.50;6.78;;;23.90;1.00;;;;;;4865340;29;20057;-66
2021/06/26 10:44:40;;;;;;;7.95;6.45;;;23.90;1.00;;;;;;4864512;29;20374;-66
2021/06/26 10:47:36;;;;;;;7.75;6.95;;;24.20;1.00;;;;;;4862041;29;20065;-68
2021/06/26 10:50:25;;;;;;;7.43;6.68;;;24.10;1.00;;;;;;4859351;29;20067;-67
2021/06/26 10:53:25;;;;;;;7.88;6.65;;;24.70;1.00;;;;;;4864784;29;20182;-67
2021/06/26 10:56:16;;;;;;;7.15;6.45;;;25.30;1.00;;;;;;4861694;29;20120;-67
2021/06/26 10:59:12;;;;;;;7.20;6.53;;;24.50;1.00;;;;;;4862917;29;20064;-67
2021/06/26 11:02:03;;;;;;;6.88;6.18;;;24.30;1.00;;;;;;4869170;29;20422;-67
2021/06/26 11:04:52;;;;;;;6.63;5.97;;;24.30;1.00;;;;;;4863018;29;20053;-67
2021/06/26 11:07:41;;;;;;;7.45;6.68;;;24.70;1.00;;;;;;4862877;29;20189;-67
2021/06/26 11:10:35;;;;;;;7.07;6.38;;;24.60;1.00;;;;;;4863317;29;20053;-68
2021/06/26 11:13:27;;;;;;;8.38;7.15;;;24.70;1.00;;;;;;4865147;29;20069;-67
2021/06/26 11:16:17;;;;;;;7.05;6.35;;;24.60;1.00;;;;;;4858131;29;20049;-67
2021/06/26 11:19:05;;;;;;;9.10;6.07;;;24.80;1.00;;;;;;4866400;29;20128;-67
2021/06/26 11:21:55;;;;;;;6.97;6.28;;;25.00;1.00;;;;;;4866716;29;20075;-67
2021/06/26 11:24:45;;;;;;;6.40;5.80;;;24.60;1.00;;;;;;4862409;29;20041;-68
2021/06/26 11:27:34;;;;;;;6.30;5.65;;;24.40;1.00;;;;;;4864450;29;20406;-67
2021/06/26 11:30:26;;;;;;;6.75;6.13;;;24.00;1.00;;;;;;4863255;29;20109;-67
2021/06/26 11:33:16;;;;;;;6.72;6.10;;;24.10;1.00;;;;;;4863221;29;20064;-67
2021/06/26 11:36:10;;;;;;;6.18;5.57;;;24.40;1.00;;;;;;4873149;29;20048;-68
2021/06/26 11:38:58;;;;;;;5.90;5.40;;;24.40;1.00;;;;;;4881375;29;20091;-67
2021/06/26 11:41:47;;;;;;;6.53;5.57;;;24.30;1.00;;;;;;4872193;29;20059;-67
2021/06/26 11:44:37;;;;;;;6.00;5.50;;;24.60;1.00;;;;;;4867885;29;20045;-66
2021/06/26 11:47:28;;;;;;;7.63;5.90;;;24.40;1.00;;;;;;4868820;29;20076;-66
2021/06/26 11:50:20;;;;;;;6.43;5.57;;;24.20;1.00;;;;;;4860679;29;20064;-66
2021/06/26 11:53:10;;;;;;;7.15;6.45;;;24.30;1.00;;;;;;4865506;29;20072;-67
2021/06/26 11:56:01;;;;;;;7.07;6.38;;;24.00;1.00;;;;;;4863760;29;20104;-67
2021/06/26 11:58:52;;;;;;;6.40;5.80;;;24.00;1.00;;;;;;4870829;29;20052;-65
2021/06/26 12:01:42;;;;;;;6.40;5.75;;;24.10;1.00;;;;;;4878346;29;20203;-64
2021/06/26 12:04:31;;;;;;;6.65;6.05;;;23.90;1.00;;;;;;4867547;29;20564;-64
2021/06/26 12:07:21;;;;;;;6.90;5.95;;;23.90;1.00;;;;;;4865673;29;20045;-65
2021/06/26 12:10:11;;;;;;;7.07;6.40;;;23.90;1.00;;;;;;4865789;29;20197;-65
2021/06/26 12:12:59;;;;;;;6.90;6.20;;;24.10;1.00;;;;;;4871584;29;20052;-65
2021/06/26 12:15:48;;;;;;;6.97;6.32;;;23.90;1.00;;;;;;4868220;29;20520;-65
2021/06/26 12:18:47;;;;;;;6.32;5.72;;;24.10;1.00;;;;;;4869004;29;20067;-66
2021/06/26 12:21:42;;;;;;;6.55;5.85;;;24.30;1.00;;;;;;4872606;29;20085;-65
2021/06/26 12:24:36;;;;;;;6.60;6.00;;;24.70;1.00;;;;;;4871563;29;20520;-65
2021/06/26 12:27:25;;;;;;;6.93;6.22;;;24.90;1.00;;;;;;4867344;29;20049;-64
2021/06/26 12:30:16;;;;;;;8.05;6.68;;;25.10;1.00;;;;;;4862571;29;20045;-64
2021/06/26 12:33:06;;;;;;;6.47;5.32;;;25.80;1.00;;;;;;4870480;29;20053;-65
2021/06/26 12:35:55;;;;;;;6.35;5.53;;;25.60;1.00;;;;;;4866821;29;20045;-65
2021/06/26 12:38:44;;;;;;;5.70;5.20;;;25.80;1.00;;;;;;4871129;29;20053;-65
2021/06/26 12:41:34;;;;;;;6.70;6.05;;;26.20;1.00;;;;;;4868655;29;20057;-65
2021/06/26 12:44:23;;;;;;;6.32;5.72;;;26.20;1.00;;;;;;4867196;29;20054;-65
2021/06/26 12:47:22;;;;;;;6.18;5.68;;;26.40;1.00;;;;;;4867060;29;20082;-65
2021/06/26 12:50:13;;;;;;;6.18;5.57;;;26.00;1.00;;;;;;4870188;29;20057;-64
2021/06/26 12:53:01;;;;;;;5.80;5.30;;;25.80;1.00;;;;;;4872052;29;20053;-64
2021/06/26 12:56:01;;;;;;;5.28;4.78;;;25.90;1.00;;;;;;4869266;29;20052;-64
2021/06/26 12:58:57;;;;;;;7.13;6.13;;;26.10;1.00;;;;;;4869328;29;20129;-63
2021/06/26 13:01:46;;;;;;;6.05;5.45;;;25.60;1.00;;;;;;4873035;29;20055;-65
2021/06/26 13:04:40;;;;;;;5.85;5.32;;;25.70;1.00;;;;;;4873188;29;20061;-65
2021/06/26 13:07:28;;;;;;;6.78;5.45;;;25.70;1.00;;;;;;4865843;29;20227;-65
2021/06/26 13:10:16;;;;;;;5.60;5.05;;;26.00;1.00;;;;;;4865236;29;20134;-65
2021/06/26 13:13:05;;;;;;;7.13;5.90;;;25.90;1.00;;;;;;4867867;29;20057;-65
2021/06/26 13:15:55;;;;;;;6.22;5.63;;;26.10;1.00;;;;;;4867848;29;20053;-65
2021/06/26 13:18:43;;;;;;;5.03;4.63;;;25.80;1.00;;;;;;4867266;29;20405;-64
2021/06/26 13:21:31;;;;;;;7.90;5.60;;;26.00;1.00;;;;;;4867000;29;20135;-65
2021/06/26 13:24:21;;;;;;;6.30;5.43;;;25.80;1.00;;;;;;4871471;29;20076;-64
2021/06/26 13:27:09;;;;;;;6.05;5.45;;;25.40;1.00;;;;;;4866542;29;20541;-66
2021/06/26 13:29:58;;;;;;;5.93;4.95;;;25.40;1.00;;;;;;4869343;29;21711;-64
2021/06/26 13:32:49;;;;;;;5.60;5.07;;;25.30;1.00;;;;;;4867536;29;20053;-65
2021/06/26 13:35:37;;;;;;;5.65;5.13;;;25.20;1.00;;;;;;4866257;29;20059;-65
2021/06/26 13:38:26;;;;;;;11.82;5.40;;;25.40;1.00;;;;;;4866517;29;20056;-65
2021/06/26 13:41:14;;;;;;;5.65;5.05;;;25.30;1.00;;;;;;4867304;29;20116;-65
2021/06/26 13:44:03;;;;;;;6.22;4.97;;;25.10;1.00;;;;;;4868558;29;20061;-66
2021/06/26 13:46:51;;;;;;;5.57;5.07;;;24.80;1.00;;;;;;4866215;29;20132;-65
2021/06/26 13:49:41;;;;;;;5.70;5.00;;;25.30;1.00;;;;;;4867882;29;20116;-66
2021/06/26 13:52:29;;;;;;;5.63;4.82;;;25.40;1.00;;;;;;4868624;29;20097;-65
2021/06/26 13:55:17;;;;;;;5.38;4.82;;;25.60;1.00;;;;;;4870300;29;20088;-65
2021/06/26 13:58:06;;;;;;;6.05;5.45;;;25.70;1.00;;;;;;4865551;29;20515;-65
2021/06/26 14:00:54;;;;;;;5.72;4.95;;;26.00;1.00;;;;;;4864826;29;20054;-65
2021/06/26 14:03:42;;;;;;;5.30;4.80;;;26.10;1.00;;;;;;4871371;29;20676;-65
2021/06/26 14:06:32;;;;;;;5.68;5.07;;;26.10;1.00;;;;;;4863922;29;20055;-64
2021/06/26 14:09:20;;;;;;;5.93;5.35;;;25.90;1.00;;;;;;4863969;29;20078;-65
2021/06/26 14:12:10;;;;;;;5.80;5.22;;;26.40;1.00;;;;;;4869091;29;20197;-65
2021/06/26 14:14:58;;;;;;;5.63;4.90;;;26.70;1.00;;;;;;4868267;29;20060;-65
2021/06/26 14:17:47;;;;;;;5.57;5.07;;;26.50;1.00;;;;;;4863099;29;20064;-64
2021/06/26 14:20:35;;;;;;;6.00;5.40;;;26.00;1.00;;;;;;4865518;29;20057;-66
2021/06/26 14:23:26;;;;;;;5.95;5.45;;;25.80;1.00;;;;;;4868930;29;20053;-65
2021/06/26 14:26:15;;;;;;;5.70;5.20;;;26.30;1.00;;;;;;4865329;29;20082;-65
2021/06/26 14:29:05;;;;;;;5.32;4.82;;;26.00;1.00;;;;;;4867862;29;20049;-64
2021/06/26 14:31:53;;;;;;;5.22;4.70;;;25.90;1.00;;;;;;4853567;29;20417;-65
2021/06/26 14:34:42;;;;;;;5.53;5.03;;;26.00;1.00;;;;;;4871143;29;20068;-65
2021/06/26 14:37:30;;;;;;;6.25;4.63;;;25.70;1.00;;;;;;4867284;29;20125;-66